Jacqueline Cochran Regional Airport
KTRM : rendu visible

Aérodrome :











RETROUVEZ-NOUS SUR...

 
LOGIN :

S'inscrire | Disclaimer

   EN    FR    IT 

 









Légende :    VFR   VFR Marginal   IFR   IFR Intensif   IFR Très Intensif
Visi : 
Plafond : 
>= 8 km
>= 3000ft
5 à 8 km
1000 à 3000 ft
1500m à 5 km
500 à 1000 ft
800 à 1500m
200 à 500 ft
< 800m
< 200 ft
Symboles :   Orages  Brouillard  Fortes neiges  Fortes précipitations  Vent > 20 kt






- Altitude de l'aérodrome : -115 ft


KTRM - Jacqueline Cochran Regional

DERNIER METAR :
  • 031652Z AUTO VRB03KT 10SM CLR 35/14 A2982 RMK AO2 SLP101 T03500139

METARs EXPIRÉS :
  • 031552Z AUTO VRB04KT 10SM CLR 33/20 A2982 RMK AO2 SLP100 T03280200
  • 031452Z AUTO 00000KT 10SM CLR 29/15 A2981 RMK AO2 SLP097 T02940150 51023

TAF KTRM
Valide du 03 à 12h jusqu'au 04 à 12h UTC


031128Z 0312/0412 31008KT P6SM SKC
FM031700 14008KT P6SM SKC
FM040200 33010G18KT P6SM SKC
FM040800 VRB04KT P6SM SKC
FIR KZLA / Amérique du Nord



MET'MAP, la Météo Aéronautique d'un coup d'oeil ! - Copyright ORBIFLY Décembre 2007 - Disclaimer

ORBIFLY MET'MAP TEAM :

Programmation & Développement : Alexandra Zaïnal
Sur une idée originale de : Baudouin d'Aumeries
Assistance à la programmation : Marc-Olivier Méhu
Soutien technique & logistique : Manuel Goepfert

Contact : metmap@orbifly.com




SOURCES & CREDITS :

   NOAA       Earth
Advisory